sensor_id;sensor_type;location;lat;lon;timestamp;temperature;humidity
25963;DHT22;13760;52.588;13.406;2023-05-10T00:01:04;12.60;83.40
25963;DHT22;13760;52.588;13.406;2023-05-10T00:03:30;12.60;84.00
25963;DHT22;13760;52.588;13.406;2023-05-10T00:05:56;12.50;84.50
25963;DHT22;13760;52.588;13.406;2023-05-10T00:08:21;12.50;84.90
25963;DHT22;13760;52.588;13.406;2023-05-10T00:10:47;12.50;85.90
25963;DHT22;13760;52.588;13.406;2023-05-10T00:13:13;12.40;86.20
25963;DHT22;13760;52.588;13.406;2023-05-10T00:15:38;12.40;86.70
25963;DHT22;13760;52.588;13.406;2023-05-10T00:18:04;12.30;87.10
25963;DHT22;13760;52.588;13.406;2023-05-10T00:20:29;12.30;87.70
25963;DHT22;13760;52.588;13.406;2023-05-10T00:22:55;12.30;87.90
25963;DHT22;13760;52.588;13.406;2023-05-10T00:25:20;12.20;88.30
25963;DHT22;13760;52.588;13.406;2023-05-10T00:27:47;12.20;88.70
25963;DHT22;13760;52.588;13.406;2023-05-10T00:30:13;12.20;89.30
25963;DHT22;13760;52.588;13.406;2023-05-10T00:32:38;12.20;89.60
25963;DHT22;13760;52.588;13.406;2023-05-10T00:35:04;12.10;90.20
25963;DHT22;13760;52.588;13.406;2023-05-10T00:37:30;12.10;90.50
25963;DHT22;13760;52.588;13.406;2023-05-10T00:39:55;12.00;90.90
25963;DHT22;13760;52.588;13.406;2023-05-10T00:42:21;12.00;91.40
25963;DHT22;13760;52.588;13.406;2023-05-10T00:44:47;12.00;91.50
25963;DHT22;13760;52.588;13.406;2023-05-10T00:47:13;11.90;91.90
25963;DHT22;13760;52.588;13.406;2023-05-10T00:49:38;11.90;92.20
25963;DHT22;13760;52.588;13.406;2023-05-10T00:52:04;11.90;92.50
25963;DHT22;13760;52.588;13.406;2023-05-10T00:54:30;11.90;93.20
25963;DHT22;13760;52.588;13.406;2023-05-10T00:56:56;11.90;93.20
25963;DHT22;13760;52.588;13.406;2023-05-10T00:59:22;11.80;93.30
25963;DHT22;13760;52.588;13.406;2023-05-10T01:01:47;11.80;93.60
25963;DHT22;13760;52.588;13.406;2023-05-10T01:04:14;11.80;93.80
25963;DHT22;13760;52.588;13.406;2023-05-10T01:06:41;11.80;93.90
25963;DHT22;13760;52.588;13.406;2023-05-10T01:09:06;11.80;94.40
25963;DHT22;13760;52.588;13.406;2023-05-10T01:11:36;11.70;94.80
25963;DHT22;13760;52.588;13.406;2023-05-10T01:14:02;11.70;95.10
25963;DHT22;13760;52.588;13.406;2023-05-10T01:16:30;11.70;95.60
25963;DHT22;13760;52.588;13.406;2023-05-10T01:18:57;11.70;95.70
25963;DHT22;13760;52.588;13.406;2023-05-10T01:31:57;11.60;97.10
25963;DHT22;13760;52.588;13.406;2023-05-10T01:34:35;11.60;97.60
25963;DHT22;13760;52.588;13.406;2023-05-10T01:37:10;11.50;97.80
25963;DHT22;13760;52.588;13.406;2023-05-10T01:39:49;11.40;98.30
25963;DHT22;13760;52.588;13.406;2023-05-10T01:42:21;11.40;98.80
25963;DHT22;13760;52.588;13.406;2023-05-10T01:45:07;11.40;99.30
25963;DHT22;13760;52.588;13.406;2023-05-10T01:47:40;11.40;99.60
25963;DHT22;13760;52.588;13.406;2023-05-10T01:50:10;11.30;99.70
25963;DHT22;13760;52.588;13.406;2023-05-10T01:52:42;11.30;99.90
25963;DHT22;13760;52.588;13.406;2023-05-10T01:55:14;11.30;99.90
25963;DHT22;13760;52.588;13.406;2023-05-10T01:57:43;11.30;99.90
25963;DHT22;13760;52.588;13.406;2023-05-10T02:00:10;11.30;99.90
25963;DHT22;13760;52.588;13.406;2023-05-10T02:02:41;11.30;99.90
25963;DHT22;13760;52.588;13.406;2023-05-10T02:05:09;11.30;99.90
25963;DHT22;13760;52.588;13.406;2023-05-10T02:07:37;11.30;99.90
25963;DHT22;13760;52.588;13.406;2023-05-10T02:10:04;11.30;99.90
25963;DHT22;13760;52.588;13.406;2023-05-10T02:12:32;11.30;99.90
25963;DHT22;13760;52.588;13.406;2023-05-10T02:15:02;11.20;99.90
25963;DHT22;13760;52.588;13.406;2023-05-10T02:17:31;11.30;99.90
25963;DHT22;13760;52.588;13.406;2023-05-10T02:19:57;11.30;99.90
25963;DHT22;13760;52.588;13.406;2023-05-10T02:22:24;11.30;99.90
25963;DHT22;13760;52.588;13.406;2023-05-10T02:24:50;11.20;99.90
25963;DHT22;13760;52.588;13.406;2023-05-10T02:27:17;11.20;99.90
25963;DHT22;13760;52.588;13.406;2023-05-10T02:29:44;11.20;99.90
25963;DHT22;13760;52.588;13.406;2023-05-10T02:32:11;11.20;99.90
25963;DHT22;13760;52.588;13.406;2023-05-10T02:34:37;11.10;99.90
25963;DHT22;13760;52.588;13.406;2023-05-10T02:37:03;11.10;99.90
25963;DHT22;13760;52.588;13.406;2023-05-10T02:39:31;11.10;99.90
25963;DHT22;13760;52.588;13.406;2023-05-10T02:41:58;11.10;99.90
25963;DHT22;13760;52.588;13.406;2023-05-10T02:44:27;11.10;99.90
25963;DHT22;13760;52.588;13.406;2023-05-10T02:46:54;11.00;99.90
25963;DHT22;13760;52.588;13.406;2023-05-10T02:49:21;11.00;99.90
25963;DHT22;13760;52.588;13.406;2023-05-10T02:51:50;11.00;99.90
25963;DHT22;13760;52.588;13.406;2023-05-10T02:54:26;11.00;99.90
25963;DHT22;13760;52.588;13.406;2023-05-10T02:57:00;10.90;99.90
25963;DHT22;13760;52.588;13.406;2023-05-10T02:59:29;10.90;99.90
25963;DHT22;13760;52.588;13.406;2023-05-10T03:01:54;10.90;99.90
25963;DHT22;13760;52.588;13.406;2023-05-10T03:04:20;10.80;99.90
25963;DHT22;13760;52.588;13.406;2023-05-10T03:06:45;10.80;99.90
25963;DHT22;13760;52.588;13.406;2023-05-10T03:09:12;10.90;99.90
25963;DHT22;13760;52.588;13.406;2023-05-10T03:14:34;10.80;99.90
25963;DHT22;13760;52.588;13.406;2023-05-10T03:17:08;10.80;99.90
25963;DHT22;13760;52.588;13.406;2023-05-10T03:19:50;10.80;99.90
25963;DHT22;13760;52.588;13.406;2023-05-10T03:22:25;10.80;99.90
25963;DHT22;13760;52.588;13.406;2023-05-10T03:24:54;10.80;99.90
25963;DHT22;13760;52.588;13.406;2023-05-10T03:27:21;10.80;99.90
25963;DHT22;13760;52.588;13.406;2023-05-10T03:29:47;10.70;99.90
25963;DHT22;13760;52.588;13.406;2023-05-10T03:32:13;10.70;99.90
25963;DHT22;13760;52.588;13.406;2023-05-10T03:34:42;10.70;99.90
25963;DHT22;13760;52.588;13.406;2023-05-10T03:37:11;10.70;99.90
25963;DHT22;13760;52.588;13.406;2023-05-10T03:39:36;10.70;99.90
25963;DHT22;13760;52.588;13.406;2023-05-10T03:42:02;10.70;99.90
25963;DHT22;13760;52.588;13.406;2023-05-10T03:44:27;10.70;99.90
25963;DHT22;13760;52.588;13.406;2023-05-10T03:46:53;10.70;99.90
25963;DHT22;13760;52.588;13.406;2023-05-10T03:49:19;10.70;99.90
25963;DHT22;13760;52.588;13.406;2023-05-10T03:51:45;10.70;99.90
25963;DHT22;13760;52.588;13.406;2023-05-10T03:54:10;10.60;99.90
25963;DHT22;13760;52.588;13.406;2023-05-10T03:56:36;10.60;99.90
25963;DHT22;13760;52.588;13.406;2023-05-10T03:59:01;10.70;99.90
25963;DHT22;13760;52.588;13.406;2023-05-10T04:01:33;10.70;99.90
25963;DHT22;13760;52.588;13.406;2023-05-10T04:03:58;10.70;99.90
25963;DHT22;13760;52.588;13.406;2023-05-10T04:06:24;10.70;99.90
25963;DHT22;13760;52.588;13.406;2023-05-10T04:08:49;10.70;99.90
25963;DHT22;13760;52.588;13.406;2023-05-10T04:11:15;10.60;99.90
25963;DHT22;13760;52.588;13.406;2023-05-10T04:13:40;10.70;99.90
25963;DHT22;13760;52.588;13.406;2023-05-10T04:16:06;10.70;99.90
25963;DHT22;13760;52.588;13.406;2023-05-10T04:18:32;10.70;99.90
25963;DHT22;13760;52.588;13.406;2023-05-10T04:20:57;10.70;99.90
25963;DHT22;13760;52.588;13.406;2023-05-10T04:23:23;10.80;99.90
25963;DHT22;13760;52.588;13.406;2023-05-10T04:25:51;10.80;99.90
25963;DHT22;13760;52.588;13.406;2023-05-10T04:28:19;10.80;99.90
25963;DHT22;13760;52.588;13.406;2023-05-10T04:30:44;10.80;99.90
25963;DHT22;13760;52.588;13.406;2023-05-10T04:33:10;10.80;99.90
25963;DHT22;13760;52.588;13.406;2023-05-10T04:35:36;10.80;99.90
25963;DHT22;13760;52.588;13.406;2023-05-10T04:38:02;10.90;99.90
25963;DHT22;13760;52.588;13.406;2023-05-10T04:40:27;10.90;99.90
25963;DHT22;13760;52.588;13.406;2023-05-10T04:42:53;10.90;99.90
25963;DHT22;13760;52.588;13.406;2023-05-10T04:45:18;11.00;99.90
25963;DHT22;13760;52.588;13.406;2023-05-10T04:47:44;11.00;99.90
25963;DHT22;13760;52.588;13.406;2023-05-10T04:50:09;11.00;99.90
25963;DHT22;13760;52.588;13.406;2023-05-10T04:52:35;11.10;99.90
25963;DHT22;13760;52.588;13.406;2023-05-10T04:55:01;11.10;99.90
25963;DHT22;13760;52.588;13.406;2023-05-10T04:57:27;11.10;99.90
25963;DHT22;13760;52.588;13.406;2023-05-10T04:59:52;11.20;99.90
25963;DHT22;13760;52.588;13.406;2023-05-10T05:02:18;11.20;99.90
25963;DHT22;13760;52.588;13.406;2023-05-10T05:04:43;11.30;99.90
25963;DHT22;13760;52.588;13.406;2023-05-10T05:07:09;11.30;99.90
25963;DHT22;13760;52.588;13.406;2023-05-10T05:09:34;11.30;99.90
25963;DHT22;13760;52.588;13.406;2023-05-10T05:12:00;11.40;99.90
25963;DHT22;13760;52.588;13.406;2023-05-10T05:14:26;11.50;99.90
25963;DHT22;13760;52.588;13.406;2023-05-10T05:16:52;11.50;99.90
25963;DHT22;13760;52.588;13.406;2023-05-10T05:19:18;11.60;99.90
25963;DHT22;13760;52.588;13.406;2023-05-10T05:21:43;11.70;99.90
25963;DHT22;13760;52.588;13.406;2023-05-10T05:24:09;11.80;99.90
25963;DHT22;13760;52.588;13.406;2023-05-10T05:26:35;11.80;99.90
25963;DHT22;13760;52.588;13.406;2023-05-10T05:29:01;11.90;99.90
25963;DHT22;13760;52.588;13.406;2023-05-10T05:31:27;12.00;99.90
25963;DHT22;13760;52.588;13.406;2023-05-10T05:33:53;12.10;99.90
25963;DHT22;13760;52.588;13.406;2023-05-10T05:36:18;12.20;99.90
25963;DHT22;13760;52.588;13.406;2023-05-10T05:38:44;12.30;99.90
25963;DHT22;13760;52.588;13.406;2023-05-10T05:41:09;12.40;99.90
25963;DHT22;13760;52.588;13.406;2023-05-10T05:43:35;12.40;99.90
25963;DHT22;13760;52.588;13.406;2023-05-10T05:46:00;12.60;99.90
25963;DHT22;13760;52.588;13.406;2023-05-10T05:48:26;12.70;99.90
25963;DHT22;13760;52.588;13.406;2023-05-10T05:50:55;12.80;99.90
25963;DHT22;13760;52.588;13.406;2023-05-10T05:53:22;13.00;99.90
25963;DHT22;13760;52.588;13.406;2023-05-10T05:55:58;13.10;99.90
25963;DHT22;13760;52.588;13.406;2023-05-10T05:58:24;13.20;99.90
25963;DHT22;13760;52.588;13.406;2023-05-10T06:00:51;13.30;99.90
25963;DHT22;13760;52.588;13.406;2023-05-10T06:03:17;13.30;99.90
25963;DHT22;13760;52.588;13.406;2023-05-10T06:05:43;13.40;99.90
25963;DHT22;13760;52.588;13.406;2023-05-10T06:08:09;13.40;99.90
25963;DHT22;13760;52.588;13.406;2023-05-10T06:10:35;13.50;99.90
25963;DHT22;13760;52.588;13.406;2023-05-10T06:13:00;13.60;99.90
25963;DHT22;13760;52.588;13.406;2023-05-10T06:15:27;13.70;99.90
25963;DHT22;13760;52.588;13.406;2023-05-10T06:17:52;13.80;99.90
25963;DHT22;13760;52.588;13.406;2023-05-10T06:20:18;13.90;99.90
25963;DHT22;13760;52.588;13.406;2023-05-10T06:22:43;14.00;99.50
25963;DHT22;13760;52.588;13.406;2023-05-10T06:25:09;14.00;99.30
25963;DHT22;13760;52.588;13.406;2023-05-10T06:27:35;14.20;99.10
25963;DHT22;13760;52.588;13.406;2023-05-10T06:30:01;14.20;99.20
25963;DHT22;13760;52.588;13.406;2023-05-10T06:32:28;14.30;99.10
25963;DHT22;13760;52.588;13.406;2023-05-10T06:34:53;14.40;99.00
25963;DHT22;13760;52.588;13.406;2023-05-10T06:37:19;14.50;98.50
25963;DHT22;13760;52.588;13.406;2023-05-10T06:39:45;14.60;98.10
25963;DHT22;13760;52.588;13.406;2023-05-10T06:42:11;14.70;97.90
25963;DHT22;13760;52.588;13.406;2023-05-10T06:44:36;14.80;97.90
25963;DHT22;13760;52.588;13.406;2023-05-10T06:47:02;14.90;98.10
25963;DHT22;13760;52.588;13.406;2023-05-10T06:49:28;15.00;98.10
25963;DHT22;13760;52.588;13.406;2023-05-10T06:51:54;15.20;97.10
25963;DHT22;13760;52.588;13.406;2023-05-10T06:54:20;15.30;96.70
25963;DHT22;13760;52.588;13.406;2023-05-10T06:56:46;15.40;96.40
25963;DHT22;13760;52.588;13.406;2023-05-10T06:59:11;15.50;96.50
25963;DHT22;13760;52.588;13.406;2023-05-10T07:01:39;15.70;96.10
25963;DHT22;13760;52.588;13.406;2023-05-10T07:04:04;15.90;95.80
25963;DHT22;13760;52.588;13.406;2023-05-10T07:06:30;16.00;95.10
25963;DHT22;13760;52.588;13.406;2023-05-10T07:08:55;16.10;94.50
25963;DHT22;13760;52.588;13.406;2023-05-10T07:11:21;16.30;94.30
25963;DHT22;13760;52.588;13.406;2023-05-10T07:13:46;16.50;94.40
25963;DHT22;13760;52.588;13.406;2023-05-10T07:16:12;16.70;94.00
25963;DHT22;13760;52.588;13.406;2023-05-10T07:18:37;16.90;92.80
25963;DHT22;13760;52.588;13.406;2023-05-10T07:21:03;17.00;92.50
25963;DHT22;13760;52.588;13.406;2023-05-10T07:23:29;17.10;92.20
25963;DHT22;13760;52.588;13.406;2023-05-10T07:25:55;17.20;91.50
25963;DHT22;13760;52.588;13.406;2023-05-10T07:28:22;17.40;92.10
25963;DHT22;13760;52.588;13.406;2023-05-10T07:30:48;17.70;91.60
25963;DHT22;13760;52.588;13.406;2023-05-10T07:33:14;17.80;90.60
25963;DHT22;13760;52.588;13.406;2023-05-10T07:35:41;18.00;89.60
25963;DHT22;13760;52.588;13.406;2023-05-10T07:38:07;18.10;90.00
25963;DHT22;13760;52.588;13.406;2023-05-10T07:40:32;18.20;89.80
25963;DHT22;13760;52.588;13.406;2023-05-10T07:42:58;18.40;90.10
25963;DHT22;13760;52.588;13.406;2023-05-10T07:45:25;18.50;88.40
25963;DHT22;13760;52.588;13.406;2023-05-10T07:47:50;18.50;86.70
25963;DHT22;13760;52.588;13.406;2023-05-10T07:50:16;18.60;86.20
25963;DHT22;13760;52.588;13.406;2023-05-10T07:52:41;18.70;86.20
25963;DHT22;13760;52.588;13.406;2023-05-10T07:55:08;18.70;85.20
25963;DHT22;13760;52.588;13.406;2023-05-10T07:57:34;18.80;84.80
25963;DHT22;13760;52.588;13.406;2023-05-10T07:59:59;18.70;84.10
25963;DHT22;13760;52.588;13.406;2023-05-10T08:02:25;18.80;83.90
25963;DHT22;13760;52.588;13.406;2023-05-10T08:04:50;18.90;83.90
25963;DHT22;13760;52.588;13.406;2023-05-10T08:07:16;18.90;83.10
25963;DHT22;13760;52.588;13.406;2023-05-10T08:09:42;18.90;83.20
25963;DHT22;13760;52.588;13.406;2023-05-10T08:12:08;18.90;82.00
25963;DHT22;13760;52.588;13.406;2023-05-10T08:14:33;18.90;81.90
25963;DHT22;13760;52.588;13.406;2023-05-10T08:16:59;19.00;82.30
25963;DHT22;13760;52.588;13.406;2023-05-10T08:19:24;19.10;82.40
25963;DHT22;13760;52.588;13.406;2023-05-10T08:21:50;19.10;81.50
25963;DHT22;13760;52.588;13.406;2023-05-10T08:24:16;19.20;81.10
25963;DHT22;13760;52.588;13.406;2023-05-10T08:26:41;19.20;81.70
25963;DHT22;13760;52.588;13.406;2023-05-10T08:29:07;19.30;81.40
25963;DHT22;13760;52.588;13.406;2023-05-10T08:31:33;19.50;80.00
25963;DHT22;13760;52.588;13.406;2023-05-10T08:33:58;19.60;80.10
25963;DHT22;13760;52.588;13.406;2023-05-10T08:36:24;19.70;80.00
25963;DHT22;13760;52.588;13.406;2023-05-10T08:38:53;19.80;80.00
25963;DHT22;13760;52.588;13.406;2023-05-10T08:41:23;19.90;78.10
25963;DHT22;13760;52.588;13.406;2023-05-10T08:43:53;20.00;79.00
25963;DHT22;13760;52.588;13.406;2023-05-10T08:46:20;20.10;76.00
25963;DHT22;13760;52.588;13.406;2023-05-10T08:48:47;20.10;75.30
25963;DHT22;13760;52.588;13.406;2023-05-10T08:51:15;20.20;75.20
25963;DHT22;13760;52.588;13.406;2023-05-10T08:53:44;20.30;74.80
25963;DHT22;13760;52.588;13.406;2023-05-10T08:56:09;20.50;75.40
25963;DHT22;13760;52.588;13.406;2023-05-10T08:58:36;20.60;75.10
25963;DHT22;13760;52.588;13.406;2023-05-10T09:01:02;20.80;74.30
25963;DHT22;13760;52.588;13.406;2023-05-10T09:03:29;20.90;73.30
25963;DHT22;13760;52.588;13.406;2023-05-10T09:05:55;20.80;72.80
25963;DHT22;13760;52.588;13.406;2023-05-10T09:08:24;20.90;73.00
25963;DHT22;13760;52.588;13.406;2023-05-10T09:10:51;21.00;72.70
25963;DHT22;13760;52.588;13.406;2023-05-10T09:13:17;21.10;72.20
25963;DHT22;13760;52.588;13.406;2023-05-10T09:15:44;21.30;72.60
25963;DHT22;13760;52.588;13.406;2023-05-10T09:18:11;21.50;73.20
25963;DHT22;13760;52.588;13.406;2023-05-10T09:20:37;21.60;70.90
25963;DHT22;13760;52.588;13.406;2023-05-10T09:23:02;21.70;69.90
25963;DHT22;13760;52.588;13.406;2023-05-10T09:25:28;21.70;69.90
25963;DHT22;13760;52.588;13.406;2023-05-10T09:27:54;21.70;69.50
25963;DHT22;13760;52.588;13.406;2023-05-10T09:30:29;21.70;69.00
25963;DHT22;13760;52.588;13.406;2023-05-10T09:32:56;21.80;68.90
25963;DHT22;13760;52.588;13.406;2023-05-10T09:35:24;22.00;69.40
25963;DHT22;13760;52.588;13.406;2023-05-10T09:37:56;22.00;68.00
25963;DHT22;13760;52.588;13.406;2023-05-10T09:40:26;22.00;67.30
25963;DHT22;13760;52.588;13.406;2023-05-10T09:43:08;22.00;67.00
25963;DHT22;13760;52.588;13.406;2023-05-10T09:45:36;22.10;68.40
25963;DHT22;13760;52.588;13.406;2023-05-10T09:48:03;22.20;67.00
25963;DHT22;13760;52.588;13.406;2023-05-10T09:50:29;22.10;65.70
25963;DHT22;13760;52.588;13.406;2023-05-10T09:52:57;22.00;65.60
25963;DHT22;13760;52.588;13.406;2023-05-10T09:58:03;22.20;65.90
25963;DHT22;13760;52.588;13.406;2023-05-10T10:00:37;22.30;65.70
25963;DHT22;13760;52.588;13.406;2023-05-10T10:03:04;22.40;67.20
25963;DHT22;13760;52.588;13.406;2023-05-10T10:05:31;22.40;65.10
25963;DHT22;13760;52.588;13.406;2023-05-10T10:07:57;22.50;64.00
25963;DHT22;13760;52.588;13.406;2023-05-10T10:10:24;22.60;63.80
25963;DHT22;13760;52.588;13.406;2023-05-10T10:12:51;22.70;64.80
25963;DHT22;13760;52.588;13.406;2023-05-10T10:15:16;22.80;65.10
25963;DHT22;13760;52.588;13.406;2023-05-10T10:17:43;22.80;62.20
25963;DHT22;13760;52.588;13.406;2023-05-10T10:20:09;22.70;63.50
25963;DHT22;13760;52.588;13.406;2023-05-10T10:22:36;22.70;62.70
25963;DHT22;13760;52.588;13.406;2023-05-10T10:25:03;22.70;62.80
25963;DHT22;13760;52.588;13.406;2023-05-10T10:30:35;22.70;63.70
25963;DHT22;13760;52.588;13.406;2023-05-10T10:36:05;23.00;62.90
25963;DHT22;13760;52.588;13.406;2023-05-10T10:41:33;23.20;62.90
25963;DHT22;13760;52.588;13.406;2023-05-10T10:52:28;23.20;60.90
25963;DHT22;13760;52.588;13.406;2023-05-10T10:57:32;23.40;58.40
25963;DHT22;13760;52.588;13.406;2023-05-10T11:00:24;23.40;59.60
25963;DHT22;13760;52.588;13.406;2023-05-10T11:05:25;23.60;59.60
25963;DHT22;13760;52.588;13.406;2023-05-10T11:07:52;23.70;59.40
25963;DHT22;13760;52.588;13.406;2023-05-10T11:10:25;23.70;58.00
25963;DHT22;13760;52.588;13.406;2023-05-10T11:13:09;23.60;57.30
25963;DHT22;13760;52.588;13.406;2023-05-10T11:15:39;23.70;57.10
25963;DHT22;13760;52.588;13.406;2023-05-10T11:20:42;23.80;58.30
25963;DHT22;13760;52.588;13.406;2023-05-10T11:23:12;23.90;58.30
25963;DHT22;13760;52.588;13.406;2023-05-10T11:25:41;23.90;58.40
25963;DHT22;13760;52.588;13.406;2023-05-10T11:28:07;23.90;57.70
25963;DHT22;13760;52.588;13.406;2023-05-10T11:30:33;23.80;56.50
25963;DHT22;13760;52.588;13.406;2023-05-10T11:32:58;23.80;57.10
25963;DHT22;13760;52.588;13.406;2023-05-10T11:35:24;23.90;57.90
25963;DHT22;13760;52.588;13.406;2023-05-10T11:37:52;23.90;57.00
25963;DHT22;13760;52.588;13.406;2023-05-10T11:40:18;23.90;57.70
25963;DHT22;13760;52.588;13.406;2023-05-10T11:42:44;24.00;57.60
25963;DHT22;13760;52.588;13.406;2023-05-10T11:45:10;24.20;58.30
25963;DHT22;13760;52.588;13.406;2023-05-10T11:47:36;24.30;58.00
25963;DHT22;13760;52.588;13.406;2023-05-10T11:50:02;24.40;56.80
25963;DHT22;13760;52.588;13.406;2023-05-10T11:52:28;24.40;57.10
25963;DHT22;13760;52.588;13.406;2023-05-10T11:54:54;24.40;56.50
25963;DHT22;13760;52.588;13.406;2023-05-10T11:57:25;24.50;56.10
25963;DHT22;13760;52.588;13.406;2023-05-10T11:59:54;24.60;55.70
25963;DHT22;13760;52.588;13.406;2023-05-10T12:02:22;24.70;55.40
25963;DHT22;13760;52.588;13.406;2023-05-10T12:04:49;24.80;54.80
25963;DHT22;13760;52.588;13.406;2023-05-10T12:07:15;24.90;55.20
25963;DHT22;13760;52.588;13.406;2023-05-10T12:09:44;24.90;55.00
25963;DHT22;13760;52.588;13.406;2023-05-10T12:12:15;24.90;56.10
25963;DHT22;13760;52.588;13.406;2023-05-10T12:14:41;25.00;55.20
25963;DHT22;13760;52.588;13.406;2023-05-10T12:17:11;25.10;55.50
25963;DHT22;13760;52.588;13.406;2023-05-10T12:19:37;25.20;55.60
25963;DHT22;13760;52.588;13.406;2023-05-10T12:22:05;25.30;54.70
25963;DHT22;13760;52.588;13.406;2023-05-10T12:24:33;25.30;54.40
25963;DHT22;13760;52.588;13.406;2023-05-10T12:26:58;25.30;54.10
25963;DHT22;13760;52.588;13.406;2023-05-10T12:29:24;25.30;54.00
25963;DHT22;13760;52.588;13.406;2023-05-10T12:31:53;25.40;54.50
25963;DHT22;13760;52.588;13.406;2023-05-10T12:34:30;25.40;54.00
25963;DHT22;13760;52.588;13.406;2023-05-10T12:36:56;25.50;53.00
25963;DHT22;13760;52.588;13.406;2023-05-10T12:39:22;25.70;52.30
25963;DHT22;13760;52.588;13.406;2023-05-10T12:41:47;25.50;51.50
25963;DHT22;13760;52.588;13.406;2023-05-10T12:44:13;25.50;51.80
25963;DHT22;13760;52.588;13.406;2023-05-10T12:46:38;25.50;50.70
25963;DHT22;13760;52.588;13.406;2023-05-10T12:49:04;25.60;51.70
25963;DHT22;13760;52.588;13.406;2023-05-10T12:51:29;25.60;49.90
25963;DHT22;13760;52.588;13.406;2023-05-10T12:53:55;25.60;50.20
25963;DHT22;13760;52.588;13.406;2023-05-10T12:56:21;25.70;50.40
25963;DHT22;13760;52.588;13.406;2023-05-10T12:58:46;25.60;50.60
25963;DHT22;13760;52.588;13.406;2023-05-10T13:01:14;25.70;50.30
25963;DHT22;13760;52.588;13.406;2023-05-10T13:03:39;25.80;50.30
25963;DHT22;13760;52.588;13.406;2023-05-10T13:06:05;25.80;50.50
25963;DHT22;13760;52.588;13.406;2023-05-10T13:08:31;25.80;50.50
25963;DHT22;13760;52.588;13.406;2023-05-10T13:10:59;25.70;51.20
25963;DHT22;13760;52.588;13.406;2023-05-10T13:13:25;25.70;51.10
25963;DHT22;13760;52.588;13.406;2023-05-10T13:15:53;25.90;50.50
25963;DHT22;13760;52.588;13.406;2023-05-10T13:18:19;25.90;48.30
25963;DHT22;13760;52.588;13.406;2023-05-10T13:20:45;26.00;47.90
25963;DHT22;13760;52.588;13.406;2023-05-10T13:23:11;26.10;46.70
25963;DHT22;13760;52.588;13.406;2023-05-10T13:25:37;26.10;46.30
25963;DHT22;13760;52.588;13.406;2023-05-10T13:28:03;26.00;46.30
25963;DHT22;13760;52.588;13.406;2023-05-10T13:30:28;26.00;46.80
25963;DHT22;13760;52.588;13.406;2023-05-10T13:32:54;26.00;47.80
25963;DHT22;13760;52.588;13.406;2023-05-10T13:35:20;26.00;47.50
25963;DHT22;13760;52.588;13.406;2023-05-10T13:37:45;26.00;48.20
25963;DHT22;13760;52.588;13.406;2023-05-10T13:40:11;26.00;48.00
25963;DHT22;13760;52.588;13.406;2023-05-10T13:42:37;26.00;49.00
25963;DHT22;13760;52.588;13.406;2023-05-10T13:45:03;25.90;48.20
25963;DHT22;13760;52.588;13.406;2023-05-10T13:47:28;25.90;48.20
25963;DHT22;13760;52.588;13.406;2023-05-10T13:49:54;26.10;48.80
25963;DHT22;13760;52.588;13.406;2023-05-10T13:52:19;26.20;47.50
25963;DHT22;13760;52.588;13.406;2023-05-10T13:54:45;26.40;48.00
25963;DHT22;13760;52.588;13.406;2023-05-10T13:57:11;26.40;47.20
25963;DHT22;13760;52.588;13.406;2023-05-10T13:59:39;26.50;46.30
25963;DHT22;13760;52.588;13.406;2023-05-10T14:02:04;26.50;48.30
25963;DHT22;13760;52.588;13.406;2023-05-10T14:04:30;26.40;46.80
25963;DHT22;13760;52.588;13.406;2023-05-10T14:06:56;26.00;47.50
25963;DHT22;13760;52.588;13.406;2023-05-10T14:09:21;25.70;47.20
25963;DHT22;13760;52.588;13.406;2023-05-10T14:11:47;25.20;46.60
25963;DHT22;13760;52.588;13.406;2023-05-10T14:14:13;25.10;47.40
25963;DHT22;13760;52.588;13.406;2023-05-10T14:16:42;25.00;48.00
25963;DHT22;13760;52.588;13.406;2023-05-10T14:19:09;24.90;48.50
25963;DHT22;13760;52.588;13.406;2023-05-10T14:21:34;25.00;48.40
25963;DHT22;13760;52.588;13.406;2023-05-10T14:24:00;25.00;48.20
25963;DHT22;13760;52.588;13.406;2023-05-10T14:26:26;24.90;48.70
25963;DHT22;13760;52.588;13.406;2023-05-10T14:28:52;24.80;48.30
25963;DHT22;13760;52.588;13.406;2023-05-10T14:31:18;24.80;47.60
25963;DHT22;13760;52.588;13.406;2023-05-10T14:33:48;24.70;48.10
25963;DHT22;13760;52.588;13.406;2023-05-10T14:36:14;24.70;47.10
25963;DHT22;13760;52.588;13.406;2023-05-10T14:38:40;24.50;47.00
25963;DHT22;13760;52.588;13.406;2023-05-10T14:41:05;24.50;48.30
25963;DHT22;13760;52.588;13.406;2023-05-10T14:43:31;24.50;48.50
25963;DHT22;13760;52.588;13.406;2023-05-10T14:45:57;24.40;49.30
25963;DHT22;13760;52.588;13.406;2023-05-10T14:48:25;24.40;49.50
25963;DHT22;13760;52.588;13.406;2023-05-10T14:50:51;24.40;48.90
25963;DHT22;13760;52.588;13.406;2023-05-10T14:53:17;24.30;48.60
25963;DHT22;13760;52.588;13.406;2023-05-10T14:55:43;24.30;48.40
25963;DHT22;13760;52.588;13.406;2023-05-10T14:58:09;24.30;48.60
25963;DHT22;13760;52.588;13.406;2023-05-10T15:00:34;24.20;48.60
25963;DHT22;13760;52.588;13.406;2023-05-10T15:03:00;24.20;47.90
25963;DHT22;13760;52.588;13.406;2023-05-10T15:05:26;24.10;48.20
25963;DHT22;13760;52.588;13.406;2023-05-10T15:07:52;24.10;46.90
25963;DHT22;13760;52.588;13.406;2023-05-10T15:10:18;24.00;47.40
25963;DHT22;13760;52.588;13.406;2023-05-10T15:12:43;24.00;48.10
25963;DHT22;13760;52.588;13.406;2023-05-10T15:15:09;24.00;48.80
25963;DHT22;13760;52.588;13.406;2023-05-10T15:17:34;23.90;48.70
25963;DHT22;13760;52.588;13.406;2023-05-10T15:20:01;23.80;48.60
25963;DHT22;13760;52.588;13.406;2023-05-10T15:22:29;23.80;49.30
25963;DHT22;13760;52.588;13.406;2023-05-10T15:24:54;23.70;48.40
25963;DHT22;13760;52.588;13.406;2023-05-10T15:27:20;23.80;48.90
25963;DHT22;13760;52.588;13.406;2023-05-10T15:29:45;23.80;49.60
25963;DHT22;13760;52.588;13.406;2023-05-10T15:32:11;23.70;48.70
25963;DHT22;13760;52.588;13.406;2023-05-10T15:34:36;23.70;50.10
25963;DHT22;13760;52.588;13.406;2023-05-10T15:37:02;23.70;48.80
25963;DHT22;13760;52.588;13.406;2023-05-10T15:39:28;23.70;49.80
25963;DHT22;13760;52.588;13.406;2023-05-10T15:41:53;23.60;48.50
25963;DHT22;13760;52.588;13.406;2023-05-10T15:44:19;23.50;49.20
25963;DHT22;13760;52.588;13.406;2023-05-10T15:46:44;23.40;48.90
25963;DHT22;13760;52.588;13.406;2023-05-10T15:49:10;23.40;49.30
25963;DHT22;13760;52.588;13.406;2023-05-10T15:51:36;23.40;50.20
25963;DHT22;13760;52.588;13.406;2023-05-10T15:54:01;23.30;49.50